Main page
METAR-TAF:

METAR-TAF

Airports :

Aérodrome de Dax - Seyresse

Dax, France

latitude: 43-41N, longitude: 001-04W, elevation: 32 m

Current weather observation

The report was made 24 minutes ago, at 04:30 UTC
Wind 4 kt from the Northeast, varying between North/Northwest and East
Temperature 3°C
Humidity 100%
Pressure 1006 hPa
Visibility: 3500 m
Broken clouds at a height of 4400 ft

METAR: LFBY 210430Z AUTO 05004KT 340V100 3500 // BKN044 03/03 Q1006

Time: 05:54 (04:54 UTC)

Forecast

The report was made 20 hours and 54 minutes ago, at 08:00 UTC
Forecast valid from 20 at 09 UTC to 20 at 18 UTC
Wind 2 kt from variable directions
Visibility: 4000 m
mist
Becoming
from 20 at 10 UTC to 20 at 12 UTC
Visibility 10 km or more
Broken clouds at a height of 3000 ft
Temporary
from 20 at 13 UTC to 20 at 16 UTC
Visibility: 7000 m
light rain

TAF: LFBY 200800Z 2009/2018 VRB02KT 4000 BR NSC BECMG 2010/2012 9999 BKN030 TEMPO 2013/2016 7000 -RA

Weather observations and forecasts of more than 4000 airports (METAR and TAF reports).

The available stations are represented by yellow and red dots on the map.

Hover mouse over dot to see the name of the station.

Then click to see weather observations and forecasts.

To change the map : click on the green buttons with a black cross to zoom in, on the green button with a dash to zoom out, or on the green arrows for adjacent maps.


METAR-TAF: